createdAt,value
2022-11-27T00:00:09.843Z,101660.69
2022-11-27T00:02:40.668Z,101659.84
2022-11-27T00:05:09.975Z,101659.91
2022-11-27T00:07:38.419Z,101657.06
2022-11-27T00:10:07.944Z,101648.22
2022-11-27T00:12:38.608Z,101644.84
2022-11-27T00:15:07.262Z,101647.56
2022-11-27T00:17:35.622Z,101638.06
2022-11-27T00:20:04.395Z,101650.50
2022-11-27T00:22:35.658Z,101645.13
2022-11-27T00:25:11.916Z,101643.22
2022-11-27T00:27:40.304Z,101639.88
2022-11-27T00:30:09.354Z,101646.63
2022-11-27T00:32:37.751Z,101639.47
2022-11-27T00:35:06.547Z,101632.59
2022-11-27T00:37:35.239Z,101631.34
2022-11-27T00:40:03.687Z,101628.63
2022-11-27T00:42:32.042Z,101625.00
2022-11-27T00:45:02.463Z,101626.81
2022-11-27T00:47:30.876Z,101623.88
2022-11-27T00:50:01.277Z,101618.59
2022-11-27T00:52:29.737Z,101617.44
2022-11-27T00:54:58.083Z,101607.72
2022-11-27T00:57:26.976Z,101596.97
2022-11-27T00:59:55.359Z,101584.63
2022-11-27T01:02:23.968Z,101570.56
2022-11-27T01:04:52.516Z,101568.78
2022-11-27T01:07:21.139Z,101573.09
2022-11-27T01:09:50.717Z,101568.78
2022-11-27T01:12:19.130Z,101553.81
2022-11-27T01:14:47.708Z,101553.16
2022-11-27T01:47:12.291Z,101555.97
2022-11-27T01:49:50.091Z,101554.16
2022-11-27T01:52:22.716Z,101566.44
2022-11-27T01:55:03.137Z,101577.91
2022-11-27T01:57:45.609Z,101570.13
2022-11-27T02:00:16.226Z,101571.91
2022-11-27T02:02:45.275Z,101572.63
2022-11-27T02:05:18.664Z,101557.03
2022-11-27T02:07:47.925Z,101556.06
2022-11-27T02:10:16.869Z,101564.09
2022-11-27T02:13:15.307Z,101545.81
2022-11-27T02:15:43.751Z,101543.31
2022-11-27T02:18:30.389Z,101545.19
2022-11-27T02:21:10.637Z,101540.88
2022-11-27T02:24:18.095Z,101547.09
2022-11-27T02:27:35.454Z,101535.81
2022-11-27T02:30:06.856Z,101532.41
2022-11-27T02:32:53.579Z,101531.34
2022-11-27T02:35:31.881Z,101532.31
2022-11-27T02:38:10.885Z,101527.25
2022-11-27T02:40:43.556Z,101528.91
2022-11-27T02:43:20.154Z,101532.41
2022-11-27T02:45:52.757Z,101534.50
2022-11-27T02:48:25.950Z,101540.63
2022-11-27T02:50:55.094Z,101546.66
2022-11-27T02:53:37.806Z,101543.91
2022-11-27T02:56:14.400Z,101539.66
2022-11-27T02:58:43.396Z,101544.31
2022-11-27T03:01:12.969Z,101546.13
2022-11-27T03:03:47.993Z,101548.97
2022-11-27T03:06:23.562Z,101539.56
2022-11-27T03:09:23.162Z,101530.66
2022-11-27T03:11:51.706Z,101534.28
2022-11-27T03:14:24.521Z,101531.66
2022-11-27T03:17:33.509Z,101526.56
2022-11-27T03:20:32.344Z,101528.56
2022-11-27T03:23:01.096Z,101525.06
2022-11-27T03:25:29.618Z,101532.47
2022-11-27T03:28:03.318Z,101525.56
2022-11-27T03:30:31.895Z,101526.63
2022-11-27T03:33:00.636Z,101528.72
2022-11-27T03:35:29.890Z,101521.63
2022-11-27T03:37:58.639Z,101526.19
2022-11-27T03:40:37.939Z,101527.13
2022-11-27T03:43:21.848Z,101523.09
2022-11-27T03:46:12.805Z,101519.72
2022-11-27T03:49:09.636Z,101517.28
2022-11-27T03:52:09.487Z,101511.25
2022-11-27T03:55:02.207Z,101496.28
2022-11-27T03:57:47.683Z,101501.75
2022-11-27T04:00:16.503Z,101499.84
2022-11-27T04:02:48.999Z,101501.56
2022-11-27T04:05:17.600Z,101498.00
2022-11-27T04:07:46.199Z,101498.84
2022-11-27T04:10:15.144Z,101506.63
2022-11-27T04:12:43.673Z,101494.22
2022-11-27T04:15:12.662Z,101498.44
2022-11-27T04:17:41.158Z,101496.66
2022-11-27T04:20:10.207Z,101493.81
2022-11-27T04:22:38.888Z,101489.38
2022-11-27T04:25:07.691Z,101490.13
2022-11-27T04:27:36.261Z,101492.03
2022-11-27T04:30:04.853Z,101488.53
2022-11-27T04:32:33.449Z,101475.16
2022-11-27T04:35:01.923Z,101475.03
2022-11-27T04:37:30.437Z,101470.63
2022-11-27T04:39:58.905Z,101483.78
2022-11-27T04:42:27.471Z,101479.28
2022-11-27T04:44:55.884Z,101474.09
2022-11-27T04:47:24.577Z,101467.13
2022-11-27T04:49:53.059Z,101470.53
2022-11-27T04:52:21.480Z,101478.03
2022-11-27T04:54:49.958Z,101478.75
2022-11-27T04:57:18.401Z,101474.44
2022-11-27T04:59:46.827Z,101466.63
2022-11-27T05:02:15.257Z,101474.00
2022-11-27T05:04:43.677Z,101464.41
2022-11-27T05:07:12.166Z,101478.63
2022-11-27T05:09:40.648Z,101478.72
2022-11-27T05:12:09.369Z,101465.53
2022-11-27T05:14:38.477Z,101463.84
2022-11-27T05:17:07.325Z,101472.72
2022-11-27T05:19:35.770Z,101474.59
2022-11-27T05:22:04.677Z,101471.88
2022-11-27T05:24:33.337Z,101467.34
2022-11-27T05:27:01.813Z,101468.31
2022-11-27T05:29:31.180Z,101466.88
2022-11-27T05:31:59.608Z,101469.84
2022-11-27T05:34:28.121Z,101481.41
2022-11-27T05:36:56.597Z,101482.19
2022-11-27T05:39:25.202Z,101481.31
2022-11-27T05:41:53.684Z,101478.91
2022-11-27T05:44:22.197Z,101482.59
2022-11-27T05:46:50.762Z,101473.72
2022-11-27T05:49:22.527Z,101479.09
2022-11-27T05:51:51.729Z,101471.19
2022-11-27T05:54:21.396Z,101472.78
2022-11-27T05:56:50.022Z,101465.06
2022-11-27T05:59:18.435Z,101472.03
2022-11-27T06:01:46.870Z,101457.91
2022-11-27T06:04:15.269Z,101458.00
2022-11-27T06:06:43.651Z,101467.63
2022-11-27T06:09:13.445Z,101467.41
2022-11-27T06:11:42.798Z,101462.16
2022-11-27T06:14:12.328Z,101465.59
2022-11-27T06:16:41.794Z,101466.38
2022-11-27T06:19:10.455Z,101468.16
2022-11-27T06:21:39.113Z,101470.78
2022-11-27T06:24:07.768Z,101470.25
2022-11-27T06:26:36.212Z,101470.88
2022-11-27T06:29:05.141Z,101465.81
2022-11-27T06:31:35.276Z,101464.66
2022-11-27T06:34:04.389Z,101458.53
2022-11-27T06:36:36.276Z,101469.19
2022-11-27T06:39:06.663Z,101458.53
2022-11-27T06:41:35.115Z,101452.41
2022-11-27T06:44:04.055Z,101444.50
2022-11-27T06:46:32.719Z,101448.00
2022-11-27T06:49:01.651Z,101437.47
2022-11-27T06:51:32.306Z,101436.41
2022-11-27T06:54:02.878Z,101442.31
2022-11-27T06:56:32.476Z,101434.53
2022-11-27T06:59:02.691Z,101432.75
2022-11-27T07:01:32.745Z,101425.34
2022-11-27T07:04:01.395Z,101414.16
2022-11-27T07:06:29.994Z,101419.34
2022-11-27T07:08:58.840Z,101414.94
2022-11-27T07:12:10.381Z,101421.78
2022-11-27T07:14:39.145Z,101411.25
2022-11-27T07:17:07.840Z,101413.13
2022-11-27T07:19:36.352Z,101418.09
2022-11-27T07:22:04.773Z,101413.56
2022-11-27T07:24:33.431Z,101411.69
2022-11-27T07:27:02.078Z,101413.25
2022-11-27T07:29:30.721Z,101407.03
2022-11-27T07:31:59.379Z,101403.16
2022-11-27T07:34:32.729Z,101403.06
2022-11-27T07:37:01.304Z,101389.66
2022-11-27T07:40:00.253Z,101395.75
2022-11-27T07:45:09.363Z,101385.75
2022-11-27T07:47:37.850Z,101385.44
2022-11-27T07:50:08.447Z,101391.66
2022-11-27T07:52:41.486Z,101389.75
2022-11-27T07:55:11.832Z,101387.13
2022-11-27T07:57:40.458Z,101386.19
2022-11-27T08:00:09.501Z,101378.13
2022-11-27T08:02:37.926Z,101381.75
2022-11-27T08:05:12.022Z,101379.19
2022-11-27T08:07:41.427Z,101379.84
2022-11-27T08:10:09.839Z,101375.31
2022-11-27T08:12:41.100Z,101377.75
2022-11-27T08:15:10.301Z,101378.34
2022-11-27T08:17:38.976Z,101379.19
2022-11-27T08:20:08.410Z,101387.75
2022-11-27T08:22:37.106Z,101378.66
2022-11-27T08:25:05.825Z,101381.22
2022-11-27T08:27:36.235Z,101383.75
2022-11-27T08:30:05.228Z,101378.88
2022-11-27T08:32:33.893Z,101373.59
2022-11-27T08:35:02.868Z,101378.56
2022-11-27T08:37:33.679Z,101385.41
2022-11-27T08:40:04.771Z,101377.38
2022-11-27T08:42:33.466Z,101378.22
2022-11-27T08:45:01.840Z,101372.72
2022-11-27T08:47:30.338Z,101377.16
2022-11-27T08:49:58.761Z,101372.00
2022-11-27T08:52:27.262Z,101368.50
2022-11-27T08:54:59.290Z,101369.25
2022-11-27T08:57:27.716Z,101361.44
2022-11-27T08:59:56.086Z,101359.88
2022-11-27T09:02:24.475Z,101357.97
2022-11-27T09:04:52.646Z,101352.59
2022-11-27T09:07:21.049Z,101355.84
2022-11-27T09:09:49.449Z,101360.91
2022-11-27T09:12:17.849Z,101361.63
2022-11-27T09:14:46.265Z,101363.22
2022-11-27T09:17:14.628Z,101351.38
2022-11-27T09:19:43.211Z,101352.13
2022-11-27T09:22:11.618Z,101349.25
2022-11-27T09:24:40.327Z,101341.00
2022-11-27T09:27:09.148Z,101340.66
2022-11-27T09:29:37.935Z,101353.63
2022-11-27T09:32:06.575Z,101352.38
2022-11-27T09:34:37.588Z,101353.09
2022-11-27T09:37:06.636Z,101368.72
2022-11-27T09:39:35.092Z,101353.50
2022-11-27T09:42:06.382Z,101354.97
2022-11-27T09:44:57.366Z,101352.81
2022-11-27T09:47:42.631Z,101342.63
2022-11-27T09:50:30.700Z,101342.53
2022-11-27T09:53:39.180Z,101344.09
2022-11-27T09:56:12.993Z,101341.25
2022-11-27T09:58:44.274Z,101340.16
2022-11-27T10:01:30.428Z,101327.47
2022-11-27T10:04:03.165Z,101321.72
2022-11-27T10:07:16.706Z,101326.53
2022-11-27T10:10:03.483Z,101331.25
2022-11-27T10:12:52.806Z,101323.81
2022-11-27T10:15:42.034Z,101316.38
2022-11-27T10:18:34.044Z,101308.00
2022-11-27T10:21:14.170Z,101307.75
2022-11-27T10:23:45.649Z,101311.84
2022-11-27T10:26:29.158Z,101309.81
2022-11-27T10:28:57.514Z,101305.91
2022-11-27T10:31:48.142Z,101299.28
2022-11-27T10:34:42.297Z,101298.91
2022-11-27T10:37:20.726Z,101300.34
2022-11-27T10:40:23.869Z,101293.03
2022-11-27T10:43:04.734Z,101293.41
2022-11-27T10:45:55.846Z,101296.41
2022-11-27T10:48:24.610Z,101290.03
2022-11-27T10:50:53.482Z,101281.84
2022-11-27T10:53:28.785Z,101277.28
2022-11-27T10:56:13.904Z,101268.38
2022-11-27T10:58:53.895Z,101261.63
2022-11-27T11:01:24.592Z,101266.31
2022-11-27T11:04:35.858Z,101258.59
2022-11-27T11:06:58.119Z,101260.88
2022-11-27T11:09:35.708Z,101261.47
2022-11-27T11:12:16.877Z,101254.13
2022-11-27T11:15:02.649Z,101244.00
2022-11-27T11:17:37.278Z,101242.78
2022-11-27T11:20:23.991Z,101255.66
2022-11-27T11:22:52.836Z,101243.00
2022-11-27T11:25:22.961Z,101239.13
2022-11-27T11:27:53.769Z,101231.50
2022-11-27T11:30:31.696Z,101221.13
2022-11-27T11:33:05.382Z,101218.94
2022-11-27T11:35:38.070Z,101207.81
2022-11-27T11:38:16.935Z,101206.50
2022-11-27T11:40:46.822Z,101211.28
2022-11-27T11:43:42.161Z,101205.59
2022-11-27T11:46:25.286Z,101211.44
2022-11-27T11:49:00.669Z,101206.28
2022-11-27T11:51:47.030Z,101208.53
2022-11-27T11:55:00.383Z,101210.69
2022-11-27T11:58:10.453Z,101209.19
2022-11-27T12:01:25.987Z,101204.19
2022-11-27T12:04:16.528Z,101191.53
2022-11-27T12:06:53.494Z,101183.31
2022-11-27T12:09:40.722Z,101171.72
2022-11-27T12:12:46.352Z,101174.13
2022-11-27T12:15:54.539Z,101166.03
2022-11-27T12:18:36.964Z,101165.47
2022-11-27T12:21:31.604Z,101155.56
2022-11-27T12:24:00.102Z,101146.50
2022-11-27T12:27:08.118Z,101140.59
2022-11-27T12:29:51.799Z,101145.47
2022-11-27T12:32:28.466Z,101135.31
2022-11-27T12:35:37.388Z,101124.84
2022-11-27T12:38:16.871Z,101131.25
2022-11-27T12:41:37.903Z,101122.03
2022-11-27T12:44:26.782Z,101118.97
2022-11-27T12:47:08.641Z,101104.03
2022-11-27T12:49:40.038Z,101102.38
2022-11-27T12:52:48.164Z,101098.44
2022-11-27T12:55:25.371Z,101092.88
2022-11-27T12:58:01.987Z,101096.78
2022-11-27T13:00:33.543Z,101096.66
2022-11-27T13:03:39.785Z,101096.78
2022-11-27T13:06:16.081Z,101095.09
2022-11-27T13:09:11.165Z,101091.75
2022-11-27T13:11:42.083Z,101092.59
2022-11-27T13:14:17.105Z,101089.69
2022-11-27T13:16:54.429Z,101085.91
2022-11-27T13:19:28.779Z,101083.97
2022-11-27T13:21:58.683Z,101074.06
2022-11-27T13:24:32.433Z,101073.81
2022-11-27T13:27:30.207Z,101067.50
2022-11-27T13:30:10.107Z,101061.22
2022-11-27T13:33:01.673Z,101053.16
2022-11-27T13:35:44.427Z,101053.56
2022-11-27T13:38:25.820Z,101067.13
2022-11-27T13:40:57.536Z,101054.84
2022-11-27T13:43:52.866Z,101057.78
2022-11-27T13:46:31.934Z,101059.31
2022-11-27T13:49:05.215Z,101059.06
2022-11-27T13:51:37.101Z,101050.09
2022-11-27T13:54:27.493Z,101044.69
2022-11-27T13:56:57.217Z,101044.25
2022-11-27T13:59:26.749Z,101045.66
2022-11-27T14:02:05.451Z,101040.91
2022-11-27T14:04:35.378Z,101049.56
2022-11-27T14:07:24.614Z,101049.03
2022-11-27T14:10:08.444Z,101035.31
2022-11-27T14:12:38.448Z,101030.88
2022-11-27T14:15:18.021Z,101033.63
2022-11-27T14:17:49.075Z,101032.09
2022-11-27T14:20:26.312Z,101030.47
2022-11-27T14:23:11.634Z,101038.25
2022-11-27T14:25:41.573Z,101024.88
2022-11-27T14:28:26.795Z,101033.78
2022-11-27T14:31:01.459Z,101032.53
2022-11-27T14:33:31.374Z,101026.41
2022-11-27T14:36:03.842Z,101026.50
2022-11-27T14:38:35.805Z,101019.56
2022-11-27T14:41:25.971Z,101019.81
2022-11-27T14:44:08.911Z,101019.41
2022-11-27T14:46:39.159Z,101005.97
2022-11-27T14:49:07.854Z,101011.13
2022-11-27T14:51:37.672Z,101003.16
2022-11-27T14:54:06.946Z,101007.50
2022-11-27T14:56:39.055Z,101004.28
2022-11-27T14:59:09.648Z,100998.41
2022-11-27T15:01:39.766Z,100996.03
2022-11-27T15:04:30.259Z,100993.66
2022-11-27T15:06:59.936Z,100997.53
2022-11-27T15:09:32.415Z,100997.53
2022-11-27T15:12:19.352Z,100993.47
2022-11-27T15:15:16.127Z,100990.25
2022-11-27T15:17:47.015Z,100993.34
2022-11-27T15:20:42.734Z,100985.66
2022-11-27T15:23:34.459Z,100982.44
2022-11-27T15:26:02.953Z,100987.84
2022-11-27T15:28:37.187Z,100979.06
2022-11-27T15:31:38.254Z,100977.53
2022-11-27T15:34:15.636Z,100972.22
2022-11-27T15:36:51.520Z,100963.44
2022-11-27T15:39:46.365Z,100961.78
2022-11-27T15:42:17.567Z,100964.28
2022-11-27T15:44:47.020Z,100946.56
2022-11-27T15:47:29.769Z,100950.06
2022-11-27T15:49:58.739Z,100940.16
2022-11-27T15:52:28.036Z,100932.34
2022-11-27T15:54:59.271Z,100932.19
2022-11-27T15:57:27.850Z,100925.22
2022-11-27T15:59:57.351Z,100909.31
2022-11-27T16:02:28.453Z,100910.03
2022-11-27T16:04:57.048Z,100918.81
2022-11-27T16:07:25.475Z,100924.94
2022-11-27T16:09:53.951Z,100930.38
2022-11-27T16:12:22.335Z,100932.09
2022-11-27T16:14:50.754Z,100925.66
2022-11-27T16:17:19.268Z,100923.00
2022-11-27T16:19:47.731Z,100920.34
2022-11-27T16:22:16.214Z,100921.31
2022-11-27T16:24:44.543Z,100918.81
2022-11-27T16:27:13.026Z,100905.69
2022-11-27T16:29:41.564Z,100903.19
2022-11-27T16:32:10.186Z,100904.16
2022-11-27T16:34:39.000Z,100903.88
2022-11-27T16:37:07.608Z,100890.47
2022-11-27T16:39:36.050Z,100885.31
2022-11-27T16:42:04.487Z,100885.16
2022-11-27T16:44:33.085Z,100877.78
2022-11-27T16:47:01.363Z,100866.91
2022-11-27T16:49:29.907Z,100878.50
2022-11-27T16:52:01.415Z,100869.44
2022-11-27T16:54:29.833Z,100855.34
2022-11-27T16:56:58.374Z,100861.34
2022-11-27T16:59:26.779Z,100856.03
2022-11-27T17:01:55.286Z,100851.72
2022-11-27T17:04:24.044Z,100845.88
2022-11-27T17:06:54.848Z,100852.97
2022-11-27T17:09:26.035Z,100846.00
2022-11-27T17:11:54.741Z,100839.88
2022-11-27T17:14:23.482Z,100831.22
2022-11-27T17:16:52.072Z,100824.38
2022-11-27T17:19:23.377Z,100819.34
2022-11-27T17:21:52.534Z,100817.66
2022-11-27T17:24:21.715Z,100807.34
2022-11-27T17:26:50.799Z,100810.16
2022-11-27T17:29:21.715Z,100815.47
2022-11-27T17:31:50.799Z,100813.63
2022-11-27T17:34:19.521Z,100809.59
2022-11-27T17:36:53.408Z,100803.72
2022-11-27T17:39:22.582Z,100812.66
2022-11-27T17:41:51.363Z,100822.56
2022-11-27T17:44:19.712Z,100819.34
2022-11-27T17:46:50.704Z,100813.31
2022-11-27T17:49:22.003Z,100812.63
2022-11-27T17:51:50.523Z,100821.13
2022-11-27T17:54:18.911Z,100815.25
2022-11-27T17:56:51.322Z,100810.25
2022-11-27T17:59:20.341Z,100817.22
2022-11-27T18:01:51.368Z,100813.00
2022-11-27T18:04:20.264Z,100814.00
2022-11-27T18:06:48.783Z,100811.47
2022-11-27T18:09:17.212Z,100808.25
2022-11-27T18:11:47.784Z,100807.00
2022-11-27T18:14:16.266Z,100806.97
2022-11-27T18:16:44.688Z,100805.13
2022-11-27T18:19:13.462Z,100810.97
2022-11-27T18:21:41.959Z,100796.97
2022-11-27T18:24:25.912Z,100790.69
2022-11-27T18:27:12.515Z,100786.91
2022-11-27T18:29:44.596Z,100783.69
2022-11-27T18:32:14.601Z,100770.84
2022-11-27T18:34:43.564Z,100773.06
2022-11-27T18:37:12.494Z,100775.00
2022-11-27T18:39:44.456Z,100769.25
2022-11-27T18:42:13.180Z,100769.53
2022-11-27T18:44:45.173Z,100772.31
2022-11-27T18:47:16.400Z,100767.03
2022-11-27T18:49:44.995Z,100765.34
2022-11-27T18:52:13.736Z,100771.59
2022-11-27T18:54:42.190Z,100771.84
2022-11-27T18:57:11.167Z,100768.38
2022-11-27T18:59:40.009Z,100771.00
2022-11-27T19:02:09.191Z,100779.94
2022-11-27T19:04:38.564Z,100782.44
2022-11-27T19:07:07.330Z,100773.81
2022-11-27T19:09:35.727Z,100773.81
2022-11-27T19:12:04.151Z,100767.09
2022-11-27T19:14:32.456Z,100774.53
2022-11-27T19:17:01.082Z,100759.91
2022-11-27T19:22:20.659Z,100779.13
2022-11-27T19:24:49.161Z,100776.84
2022-11-27T19:27:17.546Z,100761.25
2022-11-27T19:29:45.932Z,100762.09
2022-11-27T19:32:14.334Z,100757.78
2022-11-27T19:34:42.898Z,100754.44
2022-11-27T19:37:11.533Z,100755.53
2022-11-27T19:39:40.199Z,100753.00
2022-11-27T19:42:08.710Z,100757.75
2022-11-27T19:44:37.250Z,100750.78
2022-11-27T19:47:06.692Z,100750.88
2022-11-27T19:49:35.160Z,100749.22
2022-11-27T19:52:04.033Z,100741.31
2022-11-27T19:54:32.531Z,100731.53
2022-11-27T19:57:00.914Z,100736.97
2022-11-27T19:59:29.495Z,100738.06
2022-11-27T20:01:58.287Z,100730.00
2022-11-27T20:04:26.748Z,100724.34
2022-11-27T20:06:55.153Z,100712.56
2022-11-27T20:09:23.929Z,100713.81
2022-11-27T20:11:52.382Z,100712.03
2022-11-27T20:14:20.855Z,100709.38
2022-11-27T20:16:49.257Z,100706.72
2022-11-27T20:19:17.725Z,100711.75
2022-11-27T20:21:46.165Z,100708.00
2022-11-27T20:24:14.829Z,100705.09
2022-11-27T20:26:43.502Z,100700.66
2022-11-27T20:29:13.552Z,100707.63
2022-11-27T20:31:46.846Z,100704.00
2022-11-27T20:34:21.431Z,100701.34
2022-11-27T20:36:50.187Z,100696.31
2022-11-27T20:39:21.758Z,100693.56
2022-11-27T20:41:53.570Z,100690.06
2022-11-27T20:44:23.408Z,100684.63
2022-11-27T20:46:52.109Z,100693.28
2022-11-27T20:49:20.800Z,100677.19
2022-11-27T20:51:52.715Z,100673.59
2022-11-27T20:54:21.301Z,100668.09
2022-11-27T20:56:52.303Z,100663.91
2022-11-27T20:59:22.254Z,100665.84
2022-11-27T21:01:50.968Z,100659.53
2022-11-27T21:04:27.157Z,100656.63
2022-11-27T21:06:55.569Z,100660.81
2022-11-27T21:09:24.315Z,100649.97
2022-11-27T21:11:52.742Z,100644.44
2022-11-27T21:14:23.762Z,100635.53
2022-11-27T21:16:54.113Z,100639.84
2022-11-27T21:19:28.372Z,100634.84
2022-11-27T21:21:57.513Z,100629.53
2022-11-27T21:24:28.914Z,100627.88
2022-11-27T21:26:57.550Z,100620.63
2022-11-27T21:29:28.476Z,100614.75
2022-11-27T21:31:57.230Z,100612.13
2022-11-27T21:34:26.273Z,100614.03
2022-11-27T21:36:54.834Z,100616.53
2022-11-27T21:39:24.832Z,100610.47
2022-11-27T21:41:56.425Z,100604.63
2022-11-27T21:44:26.206Z,100605.28
2022-11-27T21:46:54.607Z,100603.72
2022-11-27T21:49:23.249Z,100591.50
2022-11-27T21:51:58.075Z,100596.78
2022-11-27T21:54:26.478Z,100595.09
2022-11-27T21:56:55.019Z,100587.44
2022-11-27T21:59:23.632Z,100594.78
2022-11-27T22:01:52.665Z,100590.63
2022-11-27T22:04:21.341Z,100586.56
2022-11-27T22:06:49.811Z,100587.97
2022-11-27T22:09:18.584Z,100584.94
2022-11-27T22:11:47.800Z,100587.34
2022-11-27T22:14:17.491Z,100583.44
2022-11-27T22:16:47.240Z,100573.44
2022-11-27T22:19:16.411Z,100580.25
2022-11-27T22:21:45.576Z,100581.94
2022-11-27T22:24:18.906Z,100587.38
2022-11-27T22:26:48.907Z,100580.03
2022-11-27T22:29:17.749Z,100573.75
2022-11-27T22:31:46.383Z,100571.00
2022-11-27T22:34:14.845Z,100573.63
2022-11-27T22:36:43.425Z,100570.84
2022-11-27T22:39:12.046Z,100574.47
2022-11-27T22:41:41.916Z,100569.88
2022-11-27T22:44:12.925Z,100577.94
2022-11-27T22:46:43.430Z,100568.22
2022-11-27T22:49:14.496Z,100561.97
2022-11-27T22:51:43.102Z,100568.09
2022-11-27T22:54:17.481Z,100569.88
2022-11-27T22:56:46.636Z,100563.19
2022-11-27T22:59:33.734Z,100552.72
2022-11-27T23:02:03.539Z,100548.53
2022-11-27T23:04:32.061Z,100552.97
2022-11-27T23:07:00.799Z,100555.81
2022-11-27T23:09:29.275Z,100554.28
2022-11-27T23:11:57.861Z,100548.59
2022-11-27T23:14:27.473Z,100540.09
2022-11-27T23:16:55.987Z,100541.63
2022-11-27T23:19:24.493Z,100547.44
2022-11-27T23:21:52.894Z,100543.25
2022-11-27T23:24:21.413Z,100548.78
2022-11-27T23:26:49.890Z,100534.88
2022-11-27T23:29:18.429Z,100529.00
2022-11-27T23:31:46.947Z,100531.66
2022-11-27T23:34:16.500Z,100522.66
2022-11-27T23:36:45.202Z,100533.34
2022-11-27T23:39:14.766Z,100527.38
2022-11-27T23:41:43.580Z,100530.13
2022-11-27T23:44:12.104Z,100519.44
2022-11-27T23:46:40.716Z,100512.75
2022-11-27T23:49:09.222Z,100508.88
2022-11-27T23:51:37.826Z,100517.19
2022-11-27T23:54:10.307Z,100514.53
2022-11-27T23:56:39.552Z,100515.50
2022-11-27T23:59:08.407Z,100507.59
